Drumbeat — ZCGL9 — position and weather

sailwx.info

Track history (hours):
 
Tides and Currents Weather Stations Pressure Air Temp Water Temp Dewpoint Dewpoint Depression Visibility Wind Speed Wind Dir Waves Ship Positions

Drumbeat

Last reported at 2018-Apr-18 23:51 UTC. Time now 2018-Jun-21 04:18 UTC.
Position N 09°13' W 079°55'.
Warning: this ship's position is months out of date.

Length 48 m; draft 4.8 m.

Type: Sailing vessel. MMSI: 319698000.

Date/timePositionNaut miles runAvg speedWind from/ knotsBaromVisibWave heightAir tempDewpointWater temp
2018-Apr-18 23:51N 09°13' W 079°55'3 8.5
2018-Apr-18 23:30N 09°16' W 079°55'0 1.0
2018-Apr-18 23:00N 09°16' W 079°55'1 0.7
2018-Apr-18 22:12N 09°17' W 079°55'0 1.2
2018-Apr-18 21:55N 09°17' W 079°55'3 6.1
2018-Apr-18 21:30N 09°20' W 079°55'1 1.3
2018-Apr-18 20:58N 09°20' W 079°55'0 0.0
2018-Apr-18 20:28N 09°20' W 079°55'0 0.0
2018-Apr-18 19:58N 09°20' W 079°55'0 0.0
2018-Apr-18 19:28N 09°20' W 079°55'0 0.0
2018-Apr-18 18:58N 09°20' W 079°55'0 0.0
2018-Apr-18 18:28N 09°20' W 079°55'1 2.8
2018-Apr-18 18:00N 09°22' W 079°55'2 3.2
2018-Apr-18 17:29N 09°22' W 079°57'0 0.0
2018-Apr-18 16:59N 09°22' W 079°57'0 0.0
2018-Apr-18 16:29N 09°22' W 079°57'0 0.0
2018-Apr-18 15:59N 09°22' W 079°57'0 0.0
2018-Apr-18 15:29N 09°22' W 079°57'0 0.0
2018-Apr-18 14:59N 09°22' W 079°57'0 0.0
2018-Apr-18 14:29N 09°22' W 079°57'0 0.0
2018-Apr-18 13:59N 09°22' W 079°57'0 0.0
2018-Apr-18 13:29N 09°22' W 079°57'0 0.0
2018-Apr-18 12:59N 09°22' W 079°57'0 0.0
2018-Apr-18 12:29N 09°22' W 079°57'0 0.0
2018-Apr-18 11:59N 09°22' W 079°57'0 0.0
2018-Apr-18 11:29N 09°22' W 079°57'0 0.0
2018-Apr-18 10:59N 09°22' W 079°57'0 0.0
2018-Apr-18 10:29N 09°22' W 079°57'0 0.0
2018-Apr-18 09:59N 09°22' W 079°57'0 0.0
2018-Apr-18 09:28N 09°22' W 079°57'0 0.0
2018-Apr-18 08:58N 09°22' W 079°57'0 0.0
2018-Apr-18 08:25N 09°22' W 079°57'0 0.0
2018-Apr-18 07:58N 09°22' W 079°57'0 0.0
2018-Apr-18 07:25N 09°22' W 079°57'0 0.0
2018-Apr-18 06:58N 09°22' W 079°57'0 0.0
2018-Apr-18 06:28N 09°22' W 079°57'0 0.0
2018-Apr-18 05:58N 09°22' W 079°57'0 0.0
2018-Apr-18 05:28N 09°22' W 079°57'0 0.0
2018-Apr-18 04:58N 09°22' W 079°57'0 0.0
2018-Apr-18 04:25N 09°22' W 079°57'0 0.0
2018-Apr-18 03:58N 09°22' W 079°57'0 0.0
2018-Apr-18 03:28N 09°22' W 079°57'0 0.0
2018-Apr-18 02:58N 09°22' W 079°57'0 0.0
2018-Apr-18 02:28N 09°22' W 079°57'0 0.0
2018-Apr-18 01:58N 09°22' W 079°57'0 0.0
2018-Apr-18 01:28N 09°22' W 079°57'0 0.0
2018-Apr-18 00:58N 09°22' W 079°57'0 0.0
2018-Apr-18 00:28N 09°22' W 079°57'0 0.0
2018-Apr-17 23:58N 09°22' W 079°57'0 0.0
2018-Apr-17 23:28N 09°22' W 079°57'0 0.0
2018-Apr-17 22:58N 09°22' W 079°57'0 0.0
2018-Apr-17 22:28N 09°22' W 079°57'0 0.0
2018-Apr-17 21:58N 09°22' W 079°57'0 0.0
2018-Apr-17 21:28N 09°22' W 079°57'0 0.0
2018-Apr-17 20:58N 09°22' W 079°57'0 0.0
2018-Apr-17 20:28N 09°22' W 079°57'0 0.0
2018-Apr-17 19:58N 09°22' W 079°57'0 0.0
2018-Apr-17 19:28N 09°22' W 079°57'0 0.0
2018-Apr-17 18:58N 09°22' W 079°57'0 0.0
2018-Apr-17 18:28N 09°22' W 079°57'0 0.0
2018-Apr-17 17:58N 09°22' W 079°57'0 0.0
2018-Apr-17 17:28N 09°22' W 079°57'0 0.0
2018-Apr-17 16:58N 09°22' W 079°57'0 0.0
2018-Apr-17 16:25N 09°22' W 079°57'0 0.0
2018-Apr-17 15:58N 09°22' W 079°57'0 0.0
2018-Apr-17 15:28N 09°22' W 079°57'0 0.0
2018-Apr-17 14:58N 09°22' W 079°57'0 0.0
2018-Apr-17 14:28N 09°22' W 079°57'0 0.0
2018-Apr-17 13:58N 09°22' W 079°57'0 0.0
2018-Apr-17 13:28N 09°22' W 079°57'0 0.0
2018-Apr-17 12:58N 09°22' W 079°57'0 0.0
2018-Apr-17 12:28N 09°22' W 079°57'0 0.0
2018-Apr-17 11:58N 09°22' W 079°57'0 0.0
2018-Apr-17 11:28N 09°22' W 079°57'0 0.0
2018-Apr-17 10:58N 09°22' W 079°57'0 0.0
2018-Apr-17 10:28N 09°22' W 079°57'0 0.0
2018-Apr-17 09:58N 09°22' W 079°57'0 0.0
2018-Apr-17 09:28N 09°22' W 079°57'0 0.0
2018-Apr-17 09:01N 09°22' W 079°57'0 0.0
2018-Apr-17 08:30N 09°22' W 079°57'0 0.0
2018-Apr-17 08:00N 09°22' W 079°57'0 0.0
2018-Apr-17 07:30N 09°22' W 079°57'0 0.0
2018-Apr-17 07:00N 09°22' W 079°57'0 0.0
2018-Apr-17 06:24N 09°22' W 079°57'0 0.0
2018-Apr-17 06:00N 09°22' W 079°57'0 0.0
2018-Apr-17 05:30N 09°22' W 079°57'0 0.0
2018-Apr-17 05:00N 09°22' W 079°57'0 0.0
2018-Apr-17 04:30N 09°22' W 079°57'0 0.0
2018-Apr-17 04:00N 09°22' W 079°57'0 0.0
2018-Apr-17 03:30N 09°22' W 079°57'0 0.0
2018-Apr-17 03:00N 09°22' W 079°57'0 0.0
2018-Apr-17 02:30N 09°22' W 079°57'0 0.0
2018-Apr-17 02:00N 09°22' W 079°57'0 0.0
2018-Apr-17 01:30N 09°22' W 079°57'0 0.0
2018-Apr-17 01:00N 09°22' W 079°57'0 0.0
2018-Apr-17 00:30N 09°22' W 079°57'0 0.0
2018-Apr-17 00:00N 09°22' W 079°57'0 0.0
2018-Apr-16 23:30N 09°22' W 079°57'0 0.0
2018-Apr-16 23:00N 09°22' W 079°57'0 0.0
2018-Apr-16 22:30N 09°22' W 079°57'0 0.0
2018-Apr-16 22:00N 09°22' W 079°57'0 0.0
2018-Apr-16 21:30N 09°22' W 079°57'0 0.0
2018-Apr-16 21:00N 09°22' W 079°57'0 0.0
2018-Apr-16 20:30N 09°22' W 079°57'0 0.0
2018-Apr-16 20:00N 09°22' W 079°57'0 0.0
2018-Apr-16 19:27N 09°22' W 079°57'0 0.0
2018-Apr-16 19:00N 09°22' W 079°57'0 0.0
2018-Apr-16 18:30N 09°22' W 079°57'0 0.0
2018-Apr-16 17:57N 09°22' W 079°57'0 0.0
2018-Apr-16 17:30N 09°22' W 079°57'0 0.0
2018-Apr-16 17:00N 09°22' W 079°57'0 0.0
2018-Apr-16 16:30N 09°22' W 079°57'0 0.0
2018-Apr-16 16:00N 09°22' W 079°57'0 0.0
2018-Apr-16 15:30N 09°22' W 079°57'0 0.0
2018-Apr-16 15:00N 09°22' W 079°57'0 0.0
2018-Apr-16 14:27N 09°22' W 079°57'0 0.0
2018-Apr-16 14:00N 09°22' W 079°57'0 0.0
2018-Apr-16 13:30N 09°22' W 079°57'0 0.0
2018-Apr-16 13:00N 09°22' W 079°57'0 0.0
2018-Apr-16 12:30N 09°22' W 079°57'0 0.0
2018-Apr-16 12:00N 09°22' W 079°57'0 0.0
2018-Apr-16 11:30N 09°22' W 079°57'0 0.0
2018-Apr-16 11:00N 09°22' W 079°57'0 0.0
2018-Apr-16 10:30N 09°22' W 079°57'0 0.0
2018-Apr-16 10:00N 09°22' W 079°57'0 0.0
2018-Apr-16 09:27N 09°22' W 079°57'0 0.0
2018-Apr-16 09:00N 09°22' W 079°57'0 0.0
2018-Apr-16 08:30N 09°22' W 079°57'0 0.0
2018-Apr-16 08:00N 09°22' W 079°57'0 0.0
2018-Apr-16 07:26N 09°22' W 079°57'0 0.0
2018-Apr-16 06:59N 09°22' W 079°57'0 0.0
2018-Apr-16 06:29N 09°22' W 079°57'0 0.0
2018-Apr-16 05:59N 09°22' W 079°57'0 0.0
2018-Apr-16 05:29N 09°22' W 079°57'0 0.0
2018-Apr-16 04:59N 09°22' W 079°57'0 0.0
2018-Apr-16 04:29N 09°22' W 079°57'0 0.0
2018-Apr-16 03:56N 09°22' W 079°57'0 0.0
2018-Apr-16 03:29N 09°22' W 079°57'0 0.0
2018-Apr-16 02:59N 09°22' W 079°57'0 0.0
2018-Apr-16 02:29N 09°22' W 079°57'0 0.0
2018-Apr-16 01:59N 09°22' W 079°57'0 0.0
2018-Apr-16 01:29N 09°22' W 079°57'0 0.0
2018-Apr-16 00:59N 09°22' W 079°57'0 0.0
2018-Apr-16 00:29N 09°22' W 079°57'0 0.0
2018-Apr-15 23:59N 09°22' W 079°57'0 0.0
2018-Apr-15 23:29N 09°22' W 079°57'0 0.0
2018-Apr-15 22:59N 09°22' W 079°57'0 0.0
2018-Apr-15 22:26N 09°22' W 079°57'0 0.0
2018-Apr-15 21:59N 09°22' W 079°57'0 0.0
2018-Apr-15 21:29N 09°22' W 079°57'0 0.0
2018-Apr-15 20:53N 09°22' W 079°57'0 0.0
2018-Apr-15 20:29N 09°22' W 079°57'0 0.0
2018-Apr-15 19:59N 09°22' W 079°57'0 0.0
2018-Apr-15 19:29N 09°22' W 079°57'0 0.0
2018-Apr-15 18:59N 09°22' W 079°57'0 0.0
2018-Apr-15 18:29N 09°22' W 079°57'0 0.0
2018-Apr-15 17:59N 09°22' W 079°57'0 0.0
2018-Apr-15 17:29N 09°22' W 079°57'0 0.0
2018-Apr-15 16:59N 09°22' W 079°57'0 0.0
2018-Apr-15 16:29N 09°22' W 079°57'0 0.0
2018-Apr-15 15:56N 09°22' W 079°57'0 0.0
2018-Apr-15 15:29N 09°22' W 079°57'0 0.0
2018-Apr-15 14:59N 09°22' W 079°57'0 0.0
2018-Apr-15 14:29N 09°22' W 079°57'0 0.0
2018-Apr-15 13:59N 09°22' W 079°57'0 0.0
2018-Apr-15 13:26N 09°22' W 079°57'0 0.0
2018-Apr-15 12:59N 09°22' W 079°57'0 0.0
2018-Apr-15 12:29N 09°22' W 079°57'0 0.0
2018-Apr-15 11:59N 09°22' W 079°57'0 0.0
2018-Apr-15 11:26N 09°22' W 079°57'0 0.0
2018-Apr-15 10:59N 09°22' W 079°57'0 0.0
2018-Apr-15 10:29N 09°22' W 079°57'0 0.0
2018-Apr-15 09:59N 09°22' W 079°57'0 0.0
2018-Apr-15 09:29N 09°22' W 079°57'0 0.0
2018-Apr-15 08:59N 09°22' W 079°57'0 0.0
2018-Apr-15 08:26N 09°22' W 079°57'0 0.0
2018-Apr-15 07:59N 09°22' W 079°57'0 0.0
2018-Apr-15 07:29N 09°22' W 079°57'0 0.0
2018-Apr-15 06:59N 09°22' W 079°57'0 0.0
2018-Apr-15 06:28N 09°22' W 079°57'0 0.0
2018-Apr-15 05:58N 09°22' W 079°57'0 0.0
2018-Apr-15 05:28N 09°22' W 079°57'0 0.0
2018-Apr-15 04:58N 09°22' W 079°57'0 0.0
2018-Apr-15 04:28N 09°22' W 079°57'0 0.0
2018-Apr-15 03:58N 09°22' W 079°57'0 0.0
2018-Apr-15 03:28N 09°22' W 079°57'0 0.0
2018-Apr-15 02:58N 09°22' W 079°57'0 0.0
2018-Apr-15 02:28N 09°22' W 079°57'0 0.0
2018-Apr-15 01:58N 09°22' W 079°57'0 0.0
2018-Apr-15 01:28N 09°22' W 079°57'0 0.0
2018-Apr-15 00:58N 09°22' W 079°57'0 0.0
2018-Apr-15 00:28N 09°22' W 079°57'0 0.0
2018-Apr-14 23:58N 09°22' W 079°57'0 0.0
2018-Apr-14 23:28N 09°22' W 079°57'0 0.0
2018-Apr-14 22:55N 09°22' W 079°57'0 0.0
2018-Apr-14 22:28N 09°22' W 079°57'0 0.0
2018-Apr-14 21:58N 09°22' W 079°57'0 0.0
2018-Apr-14 19:04N 09°22' W 079°57'0 0.1
2018-Apr-14 18:58N 09°22' W 079°57'0 0.0
2018-Apr-14 18:25N 09°22' W 079°57'0 0.0
2018-Apr-14 17:55N 09°22' W 079°57'0 0.0
2018-Apr-14 17:28N 09°22' W 079°57'0 0.0
2018-Apr-14 16:58N 09°22' W 079°57'0 0.3
2018-Apr-14 16:31N 09°22' W 079°57'4 8.0
2018-Apr-14 16:00N 09°26' W 079°55'  
Track history (hours):
 
Tides and Currents Weather Stations Pressure Air Temp Water Temp Dewpoint Dewpoint Depression Visibility Wind Speed Wind Dir Waves Ship Positions

Drumbeat

Last reported at 2018-Apr-18 23:51 UTC. Time now 2018-Jun-21 04:18 UTC.
Position N 09°13' W 079°55'.
Warning: this ship's position is months out of date.

Length 48 m; draft 4.8 m.

Type: Sailing vessel. MMSI: 319698000.

Date/timePositionNaut miles runAvg speedWind from/ knotsBaromVisibWave heightAir tempDewpointWater temp
2018-Apr-18 23:51N 09°13' W 079°55'3 8.5
2018-Apr-18 23:30N 09°16' W 079°55'0 1.0
2018-Apr-18 23:00N 09°16' W 079°55'1 0.7
2018-Apr-18 22:12N 09°17' W 079°55'0 1.2
2018-Apr-18 21:55N 09°17' W 079°55'3 6.1
2018-Apr-18 21:30N 09°20' W 079°55'1 1.3
2018-Apr-18 20:58N 09°20' W 079°55'0 0.0
2018-Apr-18 20:28N 09°20' W 079°55'0 0.0
2018-Apr-18 19:58N 09°20' W 079°55'0 0.0
2018-Apr-18 19:28N 09°20' W 079°55'0 0.0
2018-Apr-18 18:58N 09°20' W 079°55'0 0.0
2018-Apr-18 18:28N 09°20' W 079°55'1 2.8
2018-Apr-18 18:00N 09°22' W 079°55'2 3.2
2018-Apr-18 17:29N 09°22' W 079°57'0 0.0
2018-Apr-18 16:59N 09°22' W 079°57'0 0.0
2018-Apr-18 16:29N 09°22' W 079°57'0 0.0
2018-Apr-18 15:59N 09°22' W 079°57'0 0.0
2018-Apr-18 15:29N 09°22' W 079°57'0 0.0
2018-Apr-18 14:59N 09°22' W 079°57'0 0.0
2018-Apr-18 14:29N 09°22' W 079°57'0 0.0
2018-Apr-18 13:59N 09°22' W 079°57'0 0.0
2018-Apr-18 13:29N 09°22' W 079°57'0 0.0
2018-Apr-18 12:59N 09°22' W 079°57'0 0.0
2018-Apr-18 12:29N 09°22' W 079°57'0 0.0
2018-Apr-18 11:59N 09°22' W 079°57'0 0.0
2018-Apr-18 11:29N 09°22' W 079°57'0 0.0
2018-Apr-18 10:59N 09°22' W 079°57'0 0.0
2018-Apr-18 10:29N 09°22' W 079°57'0 0.0
2018-Apr-18 09:59N 09°22' W 079°57'0 0.0
2018-Apr-18 09:28N 09°22' W 079°57'0 0.0
2018-Apr-18 08:58N 09°22' W 079°57'0 0.0
2018-Apr-18 08:25N 09°22' W 079°57'0 0.0
2018-Apr-18 07:58N 09°22' W 079°57'0 0.0
2018-Apr-18 07:25N 09°22' W 079°57'0 0.0
2018-Apr-18 06:58N 09°22' W 079°57'0 0.0
2018-Apr-18 06:28N 09°22' W 079°57'0 0.0
2018-Apr-18 05:58N 09°22' W 079°57'0 0.0
2018-Apr-18 05:28N 09°22' W 079°57'0 0.0
2018-Apr-18 04:58N 09°22' W 079°57'0 0.0
2018-Apr-18 04:25N 09°22' W 079°57'0 0.0
2018-Apr-18 03:58N 09°22' W 079°57'0 0.0
2018-Apr-18 03:28N 09°22' W 079°57'0 0.0
2018-Apr-18 02:58N 09°22' W 079°57'0 0.0
2018-Apr-18 02:28N 09°22' W 079°57'0 0.0
2018-Apr-18 01:58N 09°22' W 079°57'0 0.0
2018-Apr-18 01:28N 09°22' W 079°57'0 0.0
2018-Apr-18 00:58N 09°22' W 079°57'0 0.0
2018-Apr-18 00:28N 09°22' W 079°57'0 0.0
2018-Apr-17 23:58N 09°22' W 079°57'0 0.0
2018-Apr-17 23:28N 09°22' W 079°57'0 0.0
2018-Apr-17 22:58N 09°22' W 079°57'0 0.0
2018-Apr-17 22:28N 09°22' W 079°57'0 0.0
2018-Apr-17 21:58N 09°22' W 079°57'0 0.0
2018-Apr-17 21:28N 09°22' W 079°57'0 0.0
2018-Apr-17 20:58N 09°22' W 079°57'0 0.0
2018-Apr-17 20:28N 09°22' W 079°57'0 0.0
2018-Apr-17 19:58N 09°22' W 079°57'0 0.0
2018-Apr-17 19:28N 09°22' W 079°57'0 0.0
2018-Apr-17 18:58N 09°22' W 079°57'0 0.0
2018-Apr-17 18:28N 09°22' W 079°57'0 0.0
2018-Apr-17 17:58N 09°22' W 079°57'0 0.0
2018-Apr-17 17:28N 09°22' W 079°57'0 0.0
2018-Apr-17 16:58N 09°22' W 079°57'0 0.0
2018-Apr-17 16:25N 09°22' W 079°57'0 0.0
2018-Apr-17 15:58N 09°22' W 079°57'0 0.0
2018-Apr-17 15:28N 09°22' W 079°57'0 0.0
2018-Apr-17 14:58N 09°22' W 079°57'0 0.0
2018-Apr-17 14:28N 09°22' W 079°57'0 0.0
2018-Apr-17 13:58N 09°22' W 079°57'0 0.0
2018-Apr-17 13:28N 09°22' W 079°57'0 0.0
2018-Apr-17 12:58N 09°22' W 079°57'0 0.0
2018-Apr-17 12:28N 09°22' W 079°57'0 0.0
2018-Apr-17 11:58N 09°22' W 079°57'0 0.0
2018-Apr-17 11:28N 09°22' W 079°57'0 0.0
2018-Apr-17 10:58N 09°22' W 079°57'0 0.0
2018-Apr-17 10:28N 09°22' W 079°57'0 0.0
2018-Apr-17 09:58N 09°22' W 079°57'0 0.0
2018-Apr-17 09:28N 09°22' W 079°57'0 0.0
2018-Apr-17 09:01N 09°22' W 079°57'0 0.0
2018-Apr-17 08:30N 09°22' W 079°57'0 0.0
2018-Apr-17 08:00N 09°22' W 079°57'0 0.0
2018-Apr-17 07:30N 09°22' W 079°57'0 0.0
2018-Apr-17 07:00N 09°22' W 079°57'0 0.0
2018-Apr-17 06:24N 09°22' W 079°57'0 0.0
2018-Apr-17 06:00N 09°22' W 079°57'0 0.0
2018-Apr-17 05:30N 09°22' W 079°57'0 0.0
2018-Apr-17 05:00N 09°22' W 079°57'0 0.0
2018-Apr-17 04:30N 09°22' W 079°57'0 0.0
2018-Apr-17 04:00N 09°22' W 079°57'0 0.0
2018-Apr-17 03:30N 09°22' W 079°57'0 0.0
2018-Apr-17 03:00N 09°22' W 079°57'0 0.0
2018-Apr-17 02:30N 09°22' W 079°57'0 0.0
2018-Apr-17 02:00N 09°22' W 079°57'0 0.0
2018-Apr-17 01:30N 09°22' W 079°57'0 0.0
2018-Apr-17 01:00N 09°22' W 079°57'0 0.0
2018-Apr-17 00:30N 09°22' W 079°57'0 0.0
2018-Apr-17 00:00N 09°22' W 079°57'0 0.0
2018-Apr-16 23:30N 09°22' W 079°57'0 0.0
2018-Apr-16 23:00N 09°22' W 079°57'0 0.0
2018-Apr-16 22:30N 09°22' W 079°57'0 0.0
2018-Apr-16 22:00N 09°22' W 079°57'0 0.0
2018-Apr-16 21:30N 09°22' W 079°57'0 0.0
2018-Apr-16 21:00N 09°22' W 079°57'0 0.0
2018-Apr-16 20:30N 09°22' W 079°57'0 0.0
2018-Apr-16 20:00N 09°22' W 079°57'0 0.0
2018-Apr-16 19:27N 09°22' W 079°57'0 0.0
2018-Apr-16 19:00N 09°22' W 079°57'0 0.0
2018-Apr-16 18:30N 09°22' W 079°57'0 0.0
2018-Apr-16 17:57N 09°22' W 079°57'0 0.0
2018-Apr-16 17:30N 09°22' W 079°57'0 0.0
2018-Apr-16 17:00N 09°22' W 079°57'0 0.0
2018-Apr-16 16:30N 09°22' W 079°57'0 0.0
2018-Apr-16 16:00N 09°22' W 079°57'0 0.0
2018-Apr-16 15:30N 09°22' W 079°57'0 0.0
2018-Apr-16 15:00N 09°22' W 079°57'0 0.0
2018-Apr-16 14:27N 09°22' W 079°57'0 0.0
2018-Apr-16 14:00N 09°22' W 079°57'0 0.0
2018-Apr-16 13:30N 09°22' W 079°57'0 0.0
2018-Apr-16 13:00N 09°22' W 079°57'0 0.0
2018-Apr-16 12:30N 09°22' W 079°57'0 0.0
2018-Apr-16 12:00N 09°22' W 079°57'0 0.0
2018-Apr-16 11:30N 09°22' W 079°57'0 0.0
2018-Apr-16 11:00N 09°22' W 079°57'0 0.0
2018-Apr-16 10:30N 09°22' W 079°57'0 0.0
2018-Apr-16 10:00N 09°22' W 079°57'0 0.0
2018-Apr-16 09:27N 09°22' W 079°57'0 0.0
2018-Apr-16 09:00N 09°22' W 079°57'0 0.0
2018-Apr-16 08:30N 09°22' W 079°57'0 0.0
2018-Apr-16 08:00N 09°22' W 079°57'0 0.0
2018-Apr-16 07:26N 09°22' W 079°57'0 0.0
2018-Apr-16 06:59N 09°22' W 079°57'0 0.0
2018-Apr-16 06:29N 09°22' W 079°57'0 0.0
2018-Apr-16 05:59N 09°22' W 079°57'0 0.0
2018-Apr-16 05:29N 09°22' W 079°57'0 0.0
2018-Apr-16 04:59N 09°22' W 079°57'0 0.0
2018-Apr-16 04:29N 09°22' W 079°57'0 0.0
2018-Apr-16 03:56N 09°22' W 079°57'0 0.0
2018-Apr-16 03:29N 09°22' W 079°57'0 0.0
2018-Apr-16 02:59N 09°22' W 079°57'0 0.0
2018-Apr-16 02:29N 09°22' W 079°57'0 0.0
2018-Apr-16 01:59N 09°22' W 079°57'0 0.0
2018-Apr-16 01:29N 09°22' W 079°57'0 0.0
2018-Apr-16 00:59N 09°22' W 079°57'0 0.0
2018-Apr-16 00:29N 09°22' W 079°57'0 0.0
2018-Apr-15 23:59N 09°22' W 079°57'0 0.0
2018-Apr-15 23:29N 09°22' W 079°57'0 0.0
2018-Apr-15 22:59N 09°22' W 079°57'0 0.0
2018-Apr-15 22:26N 09°22' W 079°57'0 0.0
2018-Apr-15 21:59N 09°22' W 079°57'0 0.0
2018-Apr-15 21:29N 09°22' W 079°57'0 0.0
2018-Apr-15 20:53N 09°22' W 079°57'0 0.0
2018-Apr-15 20:29N 09°22' W 079°57'0 0.0
2018-Apr-15 19:59N 09°22' W 079°57'0 0.0
2018-Apr-15 19:29N 09°22' W 079°57'0 0.0
2018-Apr-15 18:59N 09°22' W 079°57'0 0.0
2018-Apr-15 18:29N 09°22' W 079°57'0 0.0
2018-Apr-15 17:59N 09°22' W 079°57'0 0.0
2018-Apr-15 17:29N 09°22' W 079°57'0 0.0
2018-Apr-15 16:59N 09°22' W 079°57'0 0.0
2018-Apr-15 16:29N 09°22' W 079°57'0 0.0
2018-Apr-15 15:56N 09°22' W 079°57'0 0.0
2018-Apr-15 15:29N 09°22' W 079°57'0 0.0
2018-Apr-15 14:59N 09°22' W 079°57'0 0.0
2018-Apr-15 14:29N 09°22' W 079°57'0 0.0
2018-Apr-15 13:59N 09°22' W 079°57'0 0.0
2018-Apr-15 13:26N 09°22' W 079°57'0 0.0
2018-Apr-15 12:59N 09°22' W 079°57'0 0.0
2018-Apr-15 12:29N 09°22' W 079°57'0 0.0
2018-Apr-15 11:59N 09°22' W 079°57'0 0.0
2018-Apr-15 11:26N 09°22' W 079°57'0 0.0
2018-Apr-15 10:59N 09°22' W 079°57'0 0.0
2018-Apr-15 10:29N 09°22' W 079°57'0 0.0
2018-Apr-15 09:59N 09°22' W 079°57'0 0.0
2018-Apr-15 09:29N 09°22' W 079°57'0 0.0
2018-Apr-15 08:59N 09°22' W 079°57'0 0.0
2018-Apr-15 08:26N 09°22' W 079°57'0 0.0
2018-Apr-15 07:59N 09°22' W 079°57'0 0.0
2018-Apr-15 07:29N 09°22' W 079°57'0 0.0
2018-Apr-15 06:59N 09°22' W 079°57'0 0.0
2018-Apr-15 06:28N 09°22' W 079°57'0 0.0
2018-Apr-15 05:58N 09°22' W 079°57'0 0.0
2018-Apr-15 05:28N 09°22' W 079°57'0 0.0
2018-Apr-15 04:58N 09°22' W 079°57'0 0.0
2018-Apr-15 04:28N 09°22' W 079°57'0 0.0
2018-Apr-15 03:58N 09°22' W 079°57'0 0.0
2018-Apr-15 03:28N 09°22' W 079°57'0 0.0
2018-Apr-15 02:58N 09°22' W 079°57'0 0.0
2018-Apr-15 02:28N 09°22' W 079°57'0 0.0
2018-Apr-15 01:58N 09°22' W 079°57'0 0.0
2018-Apr-15 01:28N 09°22' W 079°57'0 0.0
2018-Apr-15 00:58N 09°22' W 079°57'0 0.0
2018-Apr-15 00:28N 09°22' W 079°57'0 0.0
2018-Apr-14 23:58N 09°22' W 079°57'0 0.0
2018-Apr-14 23:28N 09°22' W 079°57'0 0.0
2018-Apr-14 22:55N 09°22' W 079°57'0 0.0
2018-Apr-14 22:28N 09°22' W 079°57'0 0.0
2018-Apr-14 21:58N 09°22' W 079°57'0 0.0
2018-Apr-14 19:04N 09°22' W 079°57'0 0.1
2018-Apr-14 18:58N 09°22' W 079°57'0 0.0
2018-Apr-14 18:25N 09°22' W 079°57'0 0.0
2018-Apr-14 17:55N 09°22' W 079°57'0 0.0
2018-Apr-14 17:28N 09°22' W 079°57'0 0.0
2018-Apr-14 16:58N 09°22' W 079°57'0 0.3
2018-Apr-14 16:31N 09°22' W 079°57'4 8.0
2018-Apr-14 16:00N 09°26' W 079°55'  

Dump ship's entire track history